Startpagina
METAR-TAF:

METAR-TAF

Vliegvelden :

Luchthaven Dakar

Dakar, Senegal

breedte: 14-44N, lengte: 017-30W, hoogte: 27 m

Actueel weer

Dit bericht is 2 uur en het 22 minuten geleden gemaakt, om 12:00 UTC
Wind 10 kt uit het noordnoordwesten
Temperatuur 24°C
Vochtigheid 61%
Druk 1016 hPa
Zicht 10 km of meer
Verspreide wolken op 1000 ft

METAR: GOOY 261200Z 34010KT 9999 SCT010 24/16 Q1016

Tijdstip: 14:22 (14:22 UTC)

Verwachting

Dit bericht is 2 uur en het 52 minuten geleden gemaakt, om 11:30 UTC
Verwachting geldig van 26 om 12 UTC tot 27 om 18 UTC
Wind 10 kt uit het noordnoordwesten
Zicht 10 km of meer
Verspreide wolken op 1000 ft

TAF: GOOY 261130Z 2612/2718 34010KT 9999 SCT010

Waarnemingen en weersverwachtingen van meer dan 4000 vliegvelden (METAR en TAF).

De beschikbare stations zijn de gele en rode punten op de kaart.

Ga met uw muis naar het station om de naam te zien.

Klik dan om waarnemingen en weersverwachtingen te zien.

kaart wijzigen: klik op de groene knoppen met een zwart kruis om in te zoomen, op de groene knop met een streepje om uit te zoomen of op de groene pijlen voor aangrenzende kaarten.


METAR-TAF: